createdAt,value
2024-03-12T00:04:22.063Z,71.40
2024-03-12T00:10:16.832Z,69.90
2024-03-12T00:15:29.025Z,91.50
2024-03-12T00:28:16.444Z,65.70
2024-03-12T00:35:27.844Z,61.70
2024-03-12T00:42:32.462Z,81.40
2024-03-12T00:48:21.514Z,69.60
2024-03-12T00:53:32.958Z,71.20
2024-03-12T00:58:41.612Z,61.90
2024-03-12T01:03:49.561Z,73.00
2024-03-12T01:09:04.457Z,64.20
2024-03-12T01:14:13.916Z,76.00
2024-03-12T01:19:25.633Z,60.80
2024-03-12T01:24:33.140Z,68.00
2024-03-12T01:29:40.752Z,81.70
2024-03-12T01:34:48.312Z,73.80
2024-03-12T01:39:56.304Z,73.80
2024-03-12T01:45:07.086Z,74.00
2024-03-12T01:50:18.431Z,84.80
2024-03-12T01:55:28.269Z,85.70
2024-03-12T02:00:39.450Z,70.50
2024-03-12T02:05:47.901Z,74.50
2024-03-12T02:10:55.524Z,78.70
2024-03-12T02:16:03.255Z,70.30
2024-03-12T02:21:10.803Z,72.00
2024-03-12T02:26:18.144Z,81.30
2024-03-12T02:31:25.410Z,70.10
2024-03-12T02:36:32.862Z,85.90
2024-03-12T02:41:41.626Z,65.20
2024-03-12T02:46:51.021Z,78.30
2024-03-12T02:51:59.060Z,69.50
2024-03-12T02:57:07.029Z,77.40
2024-03-12T03:02:15.270Z,90.90
2024-03-12T03:07:22.464Z,84.40
2024-03-12T03:12:30.025Z,82.40
2024-03-12T03:17:37.949Z,73.50
2024-03-12T03:22:46.375Z,87.70
2024-03-12T03:27:54.583Z,83.50
2024-03-12T03:38:10.254Z,103.80
2024-03-12T03:43:17.766Z,72.10
2024-03-12T03:48:25.480Z,88.40
2024-03-12T03:53:34.173Z,100.50
2024-03-12T03:58:44.714Z,88.50
2024-03-12T04:03:53.219Z,102.60
2024-03-12T04:09:00.884Z,100.80
2024-03-12T04:14:10.828Z,95.10
2024-03-12T04:19:18.255Z,81.10
2024-03-12T04:24:27.221Z,90.20
2024-03-12T04:29:34.894Z,97.50
2024-03-12T04:34:42.576Z,83.40
2024-03-12T04:39:50.693Z,101.50
2024-03-12T04:50:05.849Z,98.90
2024-03-12T04:55:18.833Z,96.60
2024-03-12T05:00:32.678Z,110.80
2024-03-12T05:05:41.917Z,104.70
2024-03-12T05:11:02.627Z,95.70
2024-03-12T05:16:11.232Z,96.30
2024-03-12T05:21:19.259Z,94.30
2024-03-12T05:32:19.348Z,105.10
2024-03-12T05:37:40.974Z,95.60
2024-03-12T05:43:10.534Z,91.00
2024-03-12T05:48:18.843Z,88.50
2024-03-12T05:53:26.474Z,103.50
2024-03-12T05:58:33.839Z,103.40
2024-03-12T06:03:44.244Z,103.10
2024-03-12T06:08:52.028Z,114.00
2024-03-12T06:14:04.354Z,103.00
2024-03-12T06:19:15.254Z,112.10
2024-03-12T06:24:23.283Z,104.70
2024-03-12T06:29:59.605Z,119.30
2024-03-12T06:35:09.288Z,96.40
2024-03-12T06:40:20.270Z,98.90
2024-03-12T06:45:30.307Z,105.10
2024-03-12T06:50:40.697Z,103.70
2024-03-12T06:55:48.964Z,109.30
2024-03-12T07:00:57.365Z,103.50
2024-03-12T07:06:19.610Z,101.10
2024-03-12T07:12:20.315Z,108.40
2024-03-12T07:17:32.868Z,111.90
2024-03-12T07:22:46.468Z,115.30
2024-03-12T07:27:56.769Z,113.20
2024-03-12T07:33:05.416Z,112.10
2024-03-12T07:38:30.895Z,120.50
2024-03-12T07:43:59.400Z,120.00
2024-03-12T07:49:12.378Z,125.90
2024-03-12T07:54:22.073Z,119.40
2024-03-12T08:04:39.409Z,111.70
2024-03-12T08:14:52.784Z,108.60
2024-03-12T08:20:00.598Z,125.80
2024-03-12T08:25:12.795Z,121.60
2024-03-12T08:30:20.968Z,117.60
2024-03-12T08:35:29.773Z,121.80
2024-03-12T08:40:39.764Z,101.10
2024-03-12T08:45:49.178Z,104.70
2024-03-12T08:50:57.714Z,105.80
2024-03-12T08:56:07.269Z,118.60
2024-03-12T09:01:14.816Z,104.80
2024-03-12T09:06:22.842Z,102.30
2024-03-12T09:11:30.250Z,128.50
2024-03-12T09:16:38.830Z,101.70
2024-03-12T09:21:46.329Z,99.50
2024-03-12T09:26:55.151Z,117.30
2024-03-12T09:32:05.382Z,99.30
2024-03-12T09:37:12.726Z,114.70
2024-03-12T09:42:21.522Z,93.60
2024-03-12T09:47:28.939Z,92.10
2024-03-12T09:52:36.714Z,84.70
2024-03-12T09:57:46.285Z,92.00
2024-03-12T10:02:53.833Z,90.60
2024-03-12T10:08:16.795Z,94.80
2024-03-12T10:13:24.795Z,86.30
2024-03-12T10:23:41.606Z,88.30
2024-03-12T10:28:52.410Z,77.00
2024-03-12T10:34:11.629Z,89.70
2024-03-12T10:39:30.146Z,67.80
2024-03-12T10:44:40.473Z,78.40
2024-03-12T10:49:49.980Z,73.20
2024-03-12T10:55:05.745Z,72.20
2024-03-12T11:00:22.205Z,76.10
2024-03-12T11:05:30.936Z,90.60
2024-03-12T11:10:39.147Z,73.10
2024-03-12T11:15:46.931Z,80.30
2024-03-12T11:20:54.902Z,74.80
2024-03-12T11:31:15.809Z,65.30
2024-03-12T11:36:35.972Z,73.60
2024-03-12T11:42:20.482Z,68.60
2024-03-12T11:47:36.091Z,80.30
2024-03-12T11:52:46.364Z,68.00
2024-03-12T11:57:54.743Z,66.80
2024-03-12T12:03:03.215Z,64.50
2024-03-12T12:08:12.155Z,70.10
2024-03-12T12:13:22.516Z,63.10
2024-03-12T12:18:29.842Z,60.50
2024-03-12T12:23:38.887Z,70.30
2024-03-12T12:28:50.132Z,68.80
2024-03-12T12:34:00.317Z,74.80
2024-03-12T12:39:12.469Z,71.30
2024-03-12T12:44:50.249Z,64.90
2024-03-12T12:55:29.459Z,62.70
2024-03-12T13:01:41.129Z,69.70
2024-03-12T13:07:02.334Z,80.00
2024-03-12T13:12:43.825Z,69.10
2024-03-12T13:17:54.068Z,71.90
2024-03-12T13:23:01.592Z,63.50
2024-03-12T13:28:09.972Z,73.30
2024-03-12T13:33:19.906Z,71.70
2024-03-12T13:38:28.500Z,69.90
2024-03-12T13:43:36.565Z,76.20
2024-03-12T13:48:45.551Z,79.80
2024-03-12T13:53:54.701Z,80.20
2024-03-12T13:59:03.322Z,74.90
2024-03-12T14:04:12.976Z,74.80
2024-03-12T14:09:43.371Z,71.50
2024-03-12T14:15:03.098Z,84.90
2024-03-12T14:20:16.114Z,70.90
2024-03-12T14:31:15.660Z,76.20
2024-03-12T14:36:23.357Z,75.80
2024-03-12T14:41:33.821Z,83.70
2024-03-12T14:46:43.435Z,82.90
2024-03-12T14:51:52.666Z,71.50
2024-03-12T14:57:05.020Z,80.20
2024-03-12T15:02:14.295Z,83.40
2024-03-12T15:07:21.704Z,80.50
2024-03-12T15:12:31.251Z,89.70
2024-03-12T15:17:40.746Z,82.00
2024-03-12T15:22:50.578Z,80.60
2024-03-12T15:27:59.360Z,92.20
2024-03-12T15:33:08.174Z,86.40
2024-03-12T15:38:15.658Z,85.50
2024-03-12T15:43:23.461Z,85.60
2024-03-12T15:48:33.010Z,88.90
2024-03-12T15:53:43.663Z,89.70
2024-03-12T15:58:52.708Z,75.60
2024-03-12T16:04:00.880Z,77.40
2024-03-12T16:09:10.916Z,84.00
2024-03-12T16:14:18.300Z,101.10
2024-03-12T16:19:31.391Z,86.70
2024-03-12T16:24:38.992Z,87.70
2024-03-12T16:29:48.354Z,87.60
2024-03-12T16:34:58.106Z,93.40
2024-03-12T16:40:06.993Z,92.60
2024-03-12T16:45:14.800Z,98.30
2024-03-12T16:50:22.441Z,109.40
2024-03-12T16:55:33.708Z,100.40
2024-03-12T17:00:45.374Z,96.80
2024-03-12T17:05:56.602Z,117.90
2024-03-12T17:11:05.126Z,121.60
2024-03-12T17:16:34.211Z,125.80
2024-03-12T17:21:43.776Z,141.60
2024-03-12T17:26:51.864Z,117.70
2024-03-12T17:37:11.762Z,118.30
2024-03-12T17:42:22.076Z,108.70
2024-03-12T17:47:34.651Z,103.00
2024-03-12T17:52:43.799Z,124.90
2024-03-12T17:57:54.189Z,108.50
2024-03-12T18:03:11.346Z,121.30
2024-03-12T18:08:25.694Z,111.90
2024-03-12T18:13:34.306Z,106.00
2024-03-12T18:18:41.671Z,112.80
2024-03-12T18:23:51.523Z,122.80
2024-03-12T18:28:59.984Z,107.80
2024-03-12T18:34:09.314Z,116.70
2024-03-12T18:39:19.433Z,113.60
2024-03-12T18:44:28.197Z,115.00
2024-03-12T18:49:36.271Z,109.80
2024-03-12T18:59:50.177Z,107.50
2024-03-12T19:05:07.224Z,107.80
2024-03-12T19:10:16.290Z,110.90
2024-03-12T19:15:26.706Z,109.90
2024-03-12T19:20:36.244Z,108.30
2024-03-12T19:25:43.572Z,120.00
2024-03-12T19:30:52.304Z,117.00
2024-03-12T19:36:02.357Z,109.80
2024-03-12T19:41:13.769Z,120.40
2024-03-12T19:46:24.185Z,127.30
2024-03-12T19:51:33.752Z,123.80
2024-03-12T19:56:42.668Z,111.80
2024-03-12T20:01:55.895Z,116.30
2024-03-12T20:07:03.910Z,113.80
2024-03-12T20:12:12.827Z,143.70
2024-03-12T20:17:21.521Z,137.60
2024-03-12T20:22:30.656Z,121.30
2024-03-12T20:27:39.560Z,118.60
2024-03-12T20:32:47.216Z,114.80
2024-03-12T20:37:55.659Z,108.60
2024-03-12T20:43:03.966Z,116.40
2024-03-12T20:48:12.187Z,116.70
2024-03-12T20:53:21.548Z,119.50
2024-03-12T20:58:29.768Z,131.30
2024-03-12T21:03:39.123Z,110.00
2024-03-12T21:08:48.993Z,118.40
2024-03-12T21:13:56.690Z,112.30
2024-03-12T21:19:04.557Z,121.80
2024-03-12T21:29:18.178Z,133.50
2024-03-12T21:34:25.421Z,126.40
2024-03-12T21:39:32.706Z,120.30
2024-03-12T21:44:42.793Z,112.80
2024-03-12T21:49:50.073Z,109.40
2024-03-12T21:54:57.327Z,105.80
2024-03-12T22:00:11.950Z,119.70
2024-03-12T22:05:21.717Z,115.40
2024-03-12T22:10:30.975Z,113.00
2024-03-12T22:15:38.423Z,115.80
2024-03-12T22:20:47.561Z,119.30
2024-03-12T22:25:55.100Z,115.10
2024-03-12T22:31:02.514Z,107.30
2024-03-12T22:36:12.334Z,106.50
2024-03-12T22:41:25.373Z,105.40
2024-03-12T22:46:33.353Z,100.90
2024-03-12T22:51:42.458Z,100.40
2024-03-12T22:56:50.535Z,121.60
2024-03-12T23:07:05.916Z,134.10
2024-03-12T23:17:18.835Z,154.70
2024-03-12T23:22:28.778Z,140.80
2024-03-12T23:27:38.900Z,135.30
2024-03-12T23:32:46.582Z,137.90
2024-03-12T23:37:54.103Z,103.50
2024-03-12T23:43:02.057Z,96.20
2024-03-12T23:48:10.292Z,145.60
2024-03-12T23:53:17.842Z,154.20
2024-03-12T23:58:25.247Z,155.00
